METAR Formatted Surface Weather Observation
Issued by NWS

Home | Current Version | Previous Version | Text Only | Print | Product List | Glossary On
Versions: 1 2 3 4 5 6 7 8 9 10 11 12 13 14 15 16 17 18 19 20 21
420
SAUS42 KJAX 301457
MTRNPA
METAR KNPA 301456Z 36005KT 10SM CLR 23/12 A3011 RMK AO2 SLP196
T02280122 51012 $



USA.gov is the U.S. government's official web portal to all federal, state and local government web resources and services.